TAF and METAR

METAR for Aktobe Airport

UATT 290330Z 00000MPS CAVOK 04/M01 Q1033 R31/70D NOSIG RMK QFE754/1006
Report created 29. sep 05:30
wind 0 knots from N (000°) Clear sky Temperature 4° with dewpoint at -1° (Humidity 69.85%) Pressure 1033 hPa

TAF for Aktobe Airport

TAF UATT 282301Z 2900/2924 08003MPS CAVOK TX21/2912Z TN00/2900Z TEMPO 2900/2904 3100 BR FU SCT011
Report created 29. sep 01:01

between 29. sep 02:00 - 29. sep 02:00

wind 6 knots from E (080°) Clear sky Max temperature 21° expected today at around 14 o'clock Min temperature 00° expected today at around 02 o'clock

temporarily between 29. sep 02:00 - 29. sep 06:00

visibility 3100 meters mist smoke scattered clouds (~50% cover) at 1100 feet